ウルムチ地窩堡国際空港の過去48時間の天気

ウルムチ地窩堡国際空港 (Urum-Qi / Diwopu)

現在時刻: 2/21 11:54 CST (2/21 03:54 UTC) 以下の時間は現地時間です。

過去48時間のMETAR気象情報
時間 風向 風速(m/s) 視程 気温(℃) 湿度(%) 気圧(hPa) 天気現象
21 11:30 西北西 2 2500m -7 86 1029 もや
21 11:00 西北西 2 3000m -7 86 1029 もや
21 10:30 西北西 2 10km以上 -8 86 1030
21 10:00 西 1 10km以上 -8 86 1030
21 09:30 西 2 8000m -8 86 1030
21 09:00 西 2 10km以上 -8 79 1030
21 08:30 南西 1 10km以上 -8 86 1030
21 08:00 南西 1 10km以上 -8 86 1030
21 07:30 南西 1 10km以上 -8 86 1030
21 07:00 不定 1 10km以上 -9 85 1030
21 06:30 西北西 1 10km以上 -9 85 1030
21 06:00 西南西 3 10km以上 -9 85 1030
21 05:30 西南西 3 10km以上 -9 85 1030
21 05:00 西 2 10km以上 -8 93 1030
21 04:30 西 2 10km以上 -8 86 1031
21 04:00 西 1 10km以上 -6 79 1031
21 03:30 西 2 10km以上 -6 86 1031
21 03:00 西南西 2 10km以上 -7 86 1031
21 02:30 不定 1 10km以上 -6 86 1031
21 02:00 不定 1 10km以上 -7 86 1031
21 01:30 静穏 0 10km以上 -6 86 1031
21 01:00 不定 1 10km以上 -6 79 1032
21 00:30 静穏 0 10km以上 -6 79 1032
21 00:00 2 10km以上 -5 86 1032
20 23:30 1 10km以上 -5 79 1033
20 23:00 西南西 1 10km以上 -5 79 1033
20 22:30 南西 1 10km以上 -5 79 1034
20 22:00 不定 1 10km以上 -5 86 1034
20 21:30 北西 2 10km以上 -5 79 1034
20 21:00 西南西 2 10km以上 -4 80 1035
20 20:30 西 2 10km以上 -5 79 1035
20 20:00 北北東 2 10km以上 -3 74 1034
20 19:30 北北東 2 10km以上 -2 74 1035
20 19:00 3 10km以上 -2 74 1035
20 18:30 北西 2 10km以上 0 55 1035
20 18:00 西北西 2 10km以上 0 55 1035
20 17:30 西北西 1 10km以上 1 51 1035
20 17:00 西 1 10km以上 1 51 1035
20 16:30 不定 1 10km以上 0 55 1035
20 16:00 2 10km以上 0 55 1036
20 15:30 3 10km以上 0 59 1036
20 15:00 北北東 3 10km以上 0 59 1036
20 14:30 4 10km以上 -1 64 1036
20 14:00 北北東 4 10km以上 -1 64 1037
20 13:30 2 10km以上 -1 64 1037
20 13:00 2 10km以上 -1 59 1037
20 12:30 2 10km以上 -2 64 1037
20 12:00 2 10km以上 -3 68 1037
20 11:30 1 10km以上 -3 68 1038
20 11:00 不定 1 10km以上 -4 68 1038
20 10:30 南東 2 10km以上 -3 63 1038
20 10:00 南東 2 10km以上 -4 68 1038
20 09:30 南南東 3 10km以上 -6 73 1038
20 09:00 3 10km以上 -5 68 1038
20 08:30 3 10km以上 -5 74 1038
20 08:00 南南東 3 10km以上 -5 74 1038
20 07:30 2 10km以上 -5 74 1038
20 07:00 3 10km以上 -5 74 1037
20 06:30 1 10km以上 -5 74 1037
20 06:00 南南東 2 10km以上 -5 79 1037
20 05:30 2 10km以上 -5 79 1037
20 05:00 南南東 1 10km以上 -5 79 1037
20 04:30 2 10km以上 -4 74 1037
20 04:00 南南東 2 10km以上 -5 86 1037
20 03:30 西 2 10km以上 -6 86 1038
20 03:00 不定 1 10km以上 -5 93 1038
20 02:30 1 10km以上 -5 86 1038
20 02:00 不定 1 10km以上 -6 93 1038
20 01:30 不定 1 10km以上 -5 86 1038
20 01:00 南西 2 10km以上 -4 86 1038
20 00:30 西南西 1 10km以上 -4 86 1038
20 00:00 西 1 10km以上 -5 86 1038
19 23:30 西 2 10km以上 -5 86 1038
19 23:00 西北西 1 10km以上 -6 86 1038
19 22:30 不定 1 10km以上 -4 86 1039
19 22:00 東北東 2 10km以上 -5 86 1039
19 21:30 東北東 2 10km以上 -4 86 1039
19 21:00 東北東 2 10km以上 -4 80 1039
19 20:30 北東 2 10km以上 -3 74 1038
19 20:00 北東 2 10km以上 -2 69 1038
19 19:30 北東 1 10km以上 -1 64 1038
19 19:00 東北東 1 10km以上 2 48 1038
19 18:30 北北東 2 10km以上 0 64 1038
19 18:00 北北東 2 10km以上 0 59 1038
19 17:30 1 10km以上 0 59 1038
19 17:00 2 10km以上 0 64 1038
19 16:30 不定 1 10km以上 3 44 1038
19 16:00 西 1 10km以上 1 47 1038
19 15:30 不定 1 10km以上 0 55 1038
19 15:00 北北西 2 10km以上 -1 69 1038
19 14:30 不定 1 10km以上 0 69 1039
19 14:00 不定 1 10km以上 -1 74 1039
19 13:30 西 1 6000m -2 80 1039
19 13:00 西 1 2800m -1 74 1039
19 12:30 不定 1 2500m -2 80 1039 もや
19 12:00 西 2 1800m -3 86 1039 弱い雪 もや
ZWWW 210330Z 29002MPS 2500 BR NSC M07/M09 Q1029 NOSIG
ZWWW 210300Z 29002MPS 3000 BR NSC M07/M09 Q1029 BECMG TL0330 2500
ZWWW 210230Z 29002MPS CAVOK M08/M10 Q1030 NOSIG
ZWWW 210200Z 26001MPS CAVOK M08/M10 Q1030 NOSIG
ZWWW 210130Z 26002MPS 8000 NSC M08/M10 Q1030 NOSIG
ZWWW 210100Z 26002MPS CAVOK M08/M11 Q1030 NOSIG
ZWWW 210030Z 23001MPS CAVOK M08/M10 Q1030 NOSIG
ZWWW 210000Z 23001MPS CAVOK M08/M10 Q1030 NOSIG
ZWWW 202330Z 23001MPS CAVOK M08/M10 Q1030 NOSIG
ZWWW 202300Z VRB01MPS CAVOK M09/M11 Q1030 NOSIG
ZWWW 202230Z 30001MPS CAVOK M09/M11 Q1030 NOSIG
ZWWW 202200Z 25003MPS CAVOK M09/M11 Q1030 NOSIG
ZWWW 202130Z 25003MPS CAVOK M09/M11 Q1030 NOSIG
ZWWW 202100Z 27002MPS CAVOK M08/M09 Q1030 NOSIG
ZWWW 202030Z 27002MPS CAVOK M08/M10 Q1031 NOSIG
ZWWW 202000Z 28001MPS CAVOK M06/M09 Q1031 NOSIG
ZWWW 201930Z 26002MPS CAVOK M06/M08 Q1031 NOSIG
ZWWW 201900Z 24002MPS CAVOK M07/M09 Q1031 NOSIG
ZWWW 201830Z VRB01MPS CAVOK M06/M08 Q1031 NOSIG
ZWWW 201800Z VRB01MPS CAVOK M07/M09 Q1031 NOSIG
ZWWW 201730Z 00000MPS CAVOK M06/M08 Q1031 NOSIG
ZWWW 201700Z VRB01MPS CAVOK M06/M09 Q1032 NOSIG
ZWWW 201630Z 00000MPS CAVOK M06/M09 Q1032 NOSIG
ZWWW 201600Z 17002MPS CAVOK M05/M07 Q1032 NOSIG
ZWWW 201530Z 18001MPS CAVOK M05/M08 Q1033 NOSIG
ZWWW 201500Z 25001MPS CAVOK M05/M08 Q1033 NOSIG
ZWWW 201430Z 23001MPS CAVOK M05/M08 Q1034 NOSIG
ZWWW 201400Z VRB01MPS CAVOK M05/M07 Q1034 NOSIG
ZWWW 201330Z 31002MPS CAVOK M05/M08 Q1034 NOSIG
ZWWW 201300Z 25002MPS CAVOK M04/M07 Q1035 NOSIG
ZWWW 201230Z 26002MPS CAVOK M05/M08 Q1035 NOSIG
ZWWW 201200Z 02002MPS CAVOK M03/M07 Q1034 NOSIG
ZWWW 201130Z 03002MPS CAVOK M02/M06 Q1035 NOSIG
ZWWW 201100Z 36003MPS CAVOK M02/M06 Q1035 NOSIG
ZWWW 201030Z 31002MPS CAVOK 00/M08 Q1035 NOSIG
ZWWW 201000Z 30002MPS CAVOK 00/M08 Q1035 NOSIG
ZWWW 200930Z 29001MPS CAVOK 01/M08 Q1035 NOSIG
ZWWW 200900Z 28001MPS CAVOK 01/M08 Q1035 NOSIG
ZWWW 200830Z VRB01MPS CAVOK 00/M08 Q1035 NOSIG
ZWWW 200800Z 01002MPS CAVOK M00/M08 Q1036 NOSIG
ZWWW 200730Z 01003MPS CAVOK M00/M07 Q1036 NOSIG
ZWWW 200700Z 02003MPS CAVOK M00/M07 Q1036 NOSIG
ZWWW 200630Z 01004MPS CAVOK M01/M07 Q1036 NOSIG
ZWWW 200600Z 02004MPS CAVOK M01/M07 Q1037 NOSIG
ZWWW 200530Z 01002MPS CAVOK M01/M07 Q1037 NOSIG
ZWWW 200500Z 36002MPS CAVOK M01/M08 Q1037 NOSIG
ZWWW 200430Z 35002MPS CAVOK M02/M08 Q1037 NOSIG
ZWWW 200400Z 35002MPS CAVOK M03/M08 Q1037 NOSIG
ZWWW 200330Z 35001MPS CAVOK M03/M08 Q1038 NOSIG
ZWWW 200300Z VRB01MPS CAVOK M04/M09 Q1038 NOSIG
ZWWW 200230Z 13002MPS 110V170 CAVOK M03/M09 Q1038 NOSIG
ZWWW 200200Z 14002MPS CAVOK M04/M09 Q1038 NOSIG
ZWWW 200130Z 15003MPS CAVOK M06/M10 Q1038 NOSIG
ZWWW 200100Z 17003MPS CAVOK M05/M10 Q1038 NOSIG
ZWWW 200030Z 17003MPS CAVOK M05/M09 Q1038 NOSIG
ZWWW 200000Z 16003MPS CAVOK M05/M09 Q1038 NOSIG
ZWWW 192330Z 17002MPS CAVOK M05/M09 Q1038 NOSIG
ZWWW 192300Z 17003MPS CAVOK M05/M09 Q1037 NOSIG
ZWWW 192230Z 17001MPS CAVOK M05/M09 Q1037 NOSIG
ZWWW 192200Z 16002MPS CAVOK M05/M08 Q1037 NOSIG
ZWWW 192130Z 17002MPS CAVOK M05/M08 Q1037 NOSIG
ZWWW 192100Z 16001MPS CAVOK M05/M08 Q1037 NOSIG
ZWWW 192030Z 17002MPS CAVOK M04/M08 Q1037 NOSIG
ZWWW 192000Z 16002MPS 110V200 CAVOK M05/M07 Q1037 NOSIG
ZWWW 191930Z 26002MPS CAVOK M06/M08 Q1038 NOSIG
ZWWW 191900Z VRB01MPS CAVOK M05/M06 Q1038 NOSIG
ZWWW 191830Z 17001MPS CAVOK M05/M07 Q1038 NOSIG
ZWWW 191800Z VRB01MPS CAVOK M06/M07 Q1038 NOSIG
ZWWW 191730Z VRB01MPS CAVOK M05/M07 Q1038 NOSIG
ZWWW 191700Z 22002MPS CAVOK M04/M06 Q1038 NOSIG
ZWWW 191630Z 24001MPS CAVOK M04/M06 Q1038 NOSIG
ZWWW 191600Z 28001MPS CAVOK M05/M07 Q1038 NOSIG
ZWWW 191530Z 26002MPS CAVOK M05/M07 Q1038 NOSIG
ZWWW 191500Z 30001MPS CAVOK M06/M08 Q1038 NOSIG
ZWWW 191430Z VRB01MPS CAVOK M04/M06 Q1039 NOSIG
ZWWW 191400Z 07002MPS CAVOK M05/M07 Q1039 NOSIG
ZWWW 191330Z 06002MPS CAVOK M04/M06 Q1039 NOSIG
ZWWW 191300Z 07002MPS CAVOK M04/M07 Q1039 NOSIG
ZWWW 191230Z 05002MPS CAVOK M03/M07 Q1038 NOSIG
ZWWW 191200Z 04002MPS CAVOK M02/M07 Q1038 NOSIG
ZWWW 191130Z 05001MPS CAVOK M01/M07 Q1038 NOSIG
ZWWW 191100Z 06001MPS CAVOK 02/M08 Q1038 NOSIG
ZWWW 191030Z 03002MPS CAVOK M00/M06 Q1038 NOSIG
ZWWW 191000Z 03002MPS CAVOK 00/M07 Q1038 NOSIG
ZWWW 190930Z 01001MPS CAVOK M00/M07 Q1038 NOSIG
ZWWW 190900Z 36002MPS 9999 FEW033 M00/M06 Q1038 NOSIG
ZWWW 190830Z VRB01MPS 9999 FEW033 03/M08 Q1038 NOSIG
ZWWW 190800Z 28001MPS 9999 FEW033 01/M09 Q1038 NOSIG
ZWWW 190730Z VRB01MPS 9999 FEW033 00/M08 Q1038 NOSIG
ZWWW 190700Z 34002MPS 9999 FEW033 M01/M06 Q1038 NOSIG
ZWWW 190630Z VRB01MPS 9999 FEW046 M00/M05 Q1039 NOSIG
ZWWW 190600Z VRB01MPS 9999 SCT046 M01/M05 Q1039 NOSIG
ZWWW 190530Z 27001MPS 6000 SCT046 M02/M05 Q1039 NOSIG
ZWWW 190500Z 26001MPS 2800 FU SCT033 M01/M05 Q1039 BECMG TL0530 6000
ZWWW 190430Z VRB01MPS 2500 BR SCT026 M02/M05 Q1039 NOSIG
ZWWW 190400Z 26002MPS 230V300 1800 -SN BR FEW015 SCT026 M03/M05 Q1039 BECMG TL0550 3000